Cambridgeport, Massachusetts
Current Conditions -  °F | °C
As of 9:18 AM on Monday 26 Jan 2015 (Local Time) from KBOS Reporting Station
Overcast Overcast  
Wind Chill:   Ceiling: 2800
Heat Index: 14°   Visibility: 10mi
Dew Point:   Wind: 13mph
Humidity: 62%   Direction: 340°NNW
Pressure: 30.15"   Gusts: NA
Location:  42.3631°N, 71.1033°W
Report Text: KBOS 261418Z 34011KT 10SM BKN028 OVC085 M10/M16 A3015 RMK AO2
Loading
Personal Weather Stations






























Interactive Weather Map New forecast layout! Learn more

10-Day Weather Forecast

Advertisements
Track Severe Weather on mobile